KMFD/MFD METAR and TAF weather

Enter ICAO airport designator
Station Type Date Time Source
KMFD METAR 2021/08/02 01:52 UTC NOAA

KMFD 020152Z 33004KT 10SM SCT050 18/13 A3003 RMK AO2 SLP162 T01780133


Station Type Date Time Source
KMFD Decoded METAR 2021/08/02 01:52 UTC NOAA

LAHM MUNICIPAL AIRPORT, OH, United States (KMFD) 40-49N 082-31W 395M
Aug 01, 2021 - 09:52 PM EDT / 2021.08.02 0152 UTC
Wind: from the NNW (330 degrees) at 5 MPH (4 KT):0
Visibility: 10 mile(s):0
Sky conditions: partly cloudy
Temperature: 64.0 F (17.8 C)
Dew Point: 55.9 F (13.3 C)
Relative Humidity: 74%
Pressure (altimeter): 30.03 in. Hg (1016 hPa)
ob: KMFD 020152Z 33004KT 10SM SCT050 18/13 A3003 RMK AO2 SLP162 T01780133
cycle: 2

Station Type Date Time Source
KMFD TAF 2021/08/01 18:42 UTC NOAA

TAF KMFD 011740Z 0118/0218 32009KT P6SM BKN035
FM012100 34007KT P6SM SCT060

Example: see airport list